Time;durP1;ratioP1;P1;durP2;ratioP2;P2;SDS_P1;SDS_P2;PMS_P1;PMS_P2;Temp;Humidity;BMP_temperature;BMP_pressure;BME280_temperature;BME280_humidity;BME280_pressure;Samples;Min_cycle;Max_cycle;Signal;HPM_P1;HPM_P2
2023/09/13 00:01:33;;;;;;;15.23;13.05;;;18.40;99.90;;;;;;5029143;28;20449;-57
2023/09/13 00:03:59;;;;;;;20.73;15.00;;;18.50;99.90;;;;;;5029708;28;20061;-57
2023/09/13 00:06:25;;;;;;;19.92;15.15;;;18.40;99.90;;;;;;5018968;28;20034;-57
2023/09/13 00:08:50;;;;;;;18.90;15.98;;;18.30;99.90;;;;;;5020901;28;20049;-56
2023/09/13 00:11:16;;;;;;;24.92;16.50;;;18.20;99.90;;;;;;5020913;28;20052;-57
2023/09/13 00:13:42;;;;;;;20.20;16.00;;;18.20;99.90;;;;;;5019524;28;20391;-57
2023/09/13 00:16:08;;;;;;;19.80;13.93;;;18.20;99.90;;;;;;5028918;28;20479;-57
2023/09/13 00:18:33;;;;;;;13.25;11.27;;;18.10;99.90;;;;;;5028371;28;20036;-58
2023/09/13 00:20:59;;;;;;;14.85;12.32;;;18.10;99.90;;;;;;5029571;28;20021;-57
2023/09/13 00:23:25;;;;;;;15.45;13.18;;;18.10;99.90;;;;;;5024811;28;20021;-57
2023/09/13 00:25:50;;;;;;;13.07;11.68;;;18.10;99.90;;;;;;5026168;28;20024;-57
2023/09/13 00:28:16;;;;;;;16.63;12.77;;;18.10;99.90;;;;;;5029551;28;20421;-57
2023/09/13 00:30:42;;;;;;;18.00;13.65;;;18.10;99.90;;;;;;5017783;28;20021;-57
2023/09/13 00:33:07;;;;;;;15.73;13.55;;;18.10;99.90;;;;;;5016125;28;20022;-57
2023/09/13 00:35:33;;;;;;;15.15;13.35;;;18.00;99.90;;;;;;5018588;28;20021;-57
2023/09/13 00:37:59;;;;;;;16.05;13.30;;;18.00;99.90;;;;;;5017719;28;20037;-57
2023/09/13 00:40:24;;;;;;;15.30;12.82;;;18.00;99.90;;;;;;5018503;28;20117;-57
2023/09/13 00:42:50;;;;;;;15.95;13.55;;;18.00;99.90;;;;;;5021184;28;20033;-57
2023/09/13 00:45:15;;;;;;;14.73;13.10;;;17.90;99.90;;;;;;5019350;28;20025;-58
2023/09/13 00:47:42;;;;;;;15.65;13.23;;;17.90;99.90;;;;;;5013713;28;20026;-57
2023/09/13 00:50:11;;;;;;;17.05;13.30;;;17.80;99.90;;;;;;5016400;28;20029;-57
2023/09/13 00:52:38;;;;;;;14.38;12.32;;;17.80;99.90;;;;;;5035271;28;20084;-58
2023/09/13 00:55:05;;;;;;;13.82;11.75;;;17.80;99.90;;;;;;5019439;28;20018;-57
2023/09/13 00:57:33;;;;;;;14.82;12.25;;;17.80;99.90;;;;;;5035222;28;20442;-58
2023/09/13 00:59:59;;;;;;;13.48;12.07;;;17.70;99.90;;;;;;5018887;28;20107;-57
2023/09/13 01:02:25;;;;;;;14.77;12.07;;;17.80;99.90;;;;;;5015676;28;20443;-57
2023/09/13 01:04:51;;;;;;;15.55;12.35;;;17.70;99.90;;;;;;5019007;28;20079;-58
2023/09/13 01:07:16;;;;;;;13.75;12.10;;;17.70;99.90;;;;;;5016770;28;20065;-57
2023/09/13 01:09:42;;;;;;;18.88;12.10;;;17.70;99.90;;;;;;5018346;28;20049;-57
2023/09/13 01:12:07;;;;;;;12.75;11.45;;;17.70;99.90;;;;;;5018064;28;20058;-58
2023/09/13 01:14:34;;;;;;;16.75;13.07;;;17.70;99.90;;;;;;5021000;28;20108;-58
2023/09/13 01:17:19;;;;;;;14.20;12.23;;;17.60;99.90;;;;;;5021135;28;20472;-58
2023/09/13 01:19:55;;;;;;;16.20;13.18;;;17.60;99.90;;;;;;5031395;28;21197;-58
2023/09/13 01:22:33;;;;;;;23.55;13.20;;;17.60;99.90;;;;;;5026109;28;20022;-58
2023/09/13 01:25:33;;;;;;;23.40;15.07;;;17.60;99.90;;;;;;5033151;28;20021;-58
2023/09/13 01:28:10;;;;;;;21.70;15.60;;;17.50;99.90;;;;;;5018947;28;20120;-58
2023/09/13 01:30:37;;;;;;;27.92;17.15;;;17.40;99.90;;;;;;5030708;28;20045;-58
2023/09/13 01:33:02;;;;;;;22.40;16.02;;;17.40;99.90;;;;;;5032758;28;20036;-58
2023/09/13 01:35:28;;;;;;;19.77;13.32;;;17.40;99.90;;;;;;5032530;28;20018;-58
2023/09/13 01:37:53;;;;;;;19.63;13.23;;;17.30;99.90;;;;;;5047767;28;20021;-58
2023/09/13 01:40:22;;;;;;;19.05;14.15;;;17.30;99.90;;;;;;5027556;28;20094;-58
2023/09/13 01:42:49;;;;;;;18.60;13.45;;;17.30;99.90;;;;;;5030600;28;20024;-58
2023/09/13 01:45:15;;;;;;;24.30;14.88;;;17.30;99.90;;;;;;5029057;28;20022;-58
2023/09/13 01:47:44;;;;;;;19.77;13.27;;;17.30;99.90;;;;;;5023145;28;20071;-58
2023/09/13 01:50:11;;;;;;;17.55;13.18;;;17.30;99.90;;;;;;5021203;28;20064;-58
2023/09/13 01:52:37;;;;;;;17.95;12.73;;;17.30;99.90;;;;;;5020887;28;20033;-58
2023/09/13 01:55:06;;;;;;;18.52;12.65;;;17.30;99.90;;;;;;5023432;28;20029;-58
2023/09/13 01:57:32;;;;;;;31.30;15.13;;;17.30;99.90;;;;;;5021927;28;20049;-59
2023/09/13 01:59:58;;;;;;;21.90;13.68;;;17.20;99.90;;;;;;5026598;28;20113;-59
2023/09/13 02:02:23;;;;;;;18.15;13.93;;;17.20;99.90;;;;;;5026972;28;20053;-58
2023/09/13 02:04:49;;;;;;;15.85;12.70;;;17.20;99.90;;;;;;5022804;28;20021;-58
2023/09/13 02:07:16;;;;;;;18.88;13.40;;;17.20;99.90;;;;;;5027798;28;20029;-58
2023/09/13 02:09:42;;;;;;;20.75;14.88;;;17.20;99.90;;;;;;5021970;28;20883;-58
2023/09/13 02:12:12;;;;;;;17.45;13.45;;;17.20;99.90;;;;;;5027388;28;20068;-58
2023/09/13 02:14:38;;;;;;;22.17;14.27;;;17.20;99.90;;;;;;5025851;28;20356;-58
2023/09/13 02:17:04;;;;;;;22.25;13.68;;;17.30;99.90;;;;;;5028982;28;20082;-58
2023/09/13 02:19:29;;;;;;;22.75;15.30;;;17.30;99.90;;;;;;5031640;28;20025;-58
2023/09/13 02:21:55;;;;;;;25.15;15.80;;;17.30;99.90;;;;;;5029057;28;20421;-58
2023/09/13 02:24:20;;;;;;;19.77;14.45;;;17.30;99.90;;;;;;5020555;28;20100;-58
2023/09/13 02:26:46;;;;;;;18.42;13.60;;;17.20;99.90;;;;;;5017168;28;20446;-58
2023/09/13 02:29:11;;;;;;;21.88;13.70;;;17.20;99.90;;;;;;5018275;28;20115;-58
2023/09/13 02:31:38;;;;;;;14.80;12.77;;;17.20;99.90;;;;;;5016908;28;20128;-58
2023/09/13 02:34:04;;;;;;;22.17;15.00;;;17.20;99.90;;;;;;5022154;28;20471;-58
2023/09/13 02:36:29;;;;;;;19.52;13.93;;;17.20;99.90;;;;;;5031198;28;20026;-58
2023/09/13 02:38:58;;;;;;;20.95;14.02;;;17.20;99.90;;;;;;5025070;28;20132;-58
2023/09/13 02:41:23;;;;;;;18.80;14.25;;;17.30;99.90;;;;;;5017683;28;20029;-58
2023/09/13 02:43:49;;;;;;;21.38;14.07;;;17.20;99.90;;;;;;5017716;28;20029;-58
2023/09/13 02:46:14;;;;;;;20.65;13.65;;;17.20;99.90;;;;;;5018745;28;20462;-58
2023/09/13 02:48:40;;;;;;;19.60;14.10;;;17.20;99.90;;;;;;5018803;28;21077;-58
2023/09/13 02:51:12;;;;;;;27.90;17.25;;;17.20;99.90;;;;;;5016642;28;20044;-58
2023/09/13 02:53:37;;;;;;;24.95;16.27;;;17.20;99.90;;;;;;5017760;28;20535;-58
2023/09/13 02:56:07;;;;;;;23.60;15.98;;;17.20;99.90;;;;;;5017318;28;20053;-58
2023/09/13 02:58:33;;;;;;;25.92;16.02;;;17.20;99.90;;;;;;5023021;28;20026;-58
2023/09/13 03:01:03;;;;;;;22.00;15.43;;;17.20;99.90;;;;;;5017159;28;20025;-58
2023/09/13 03:03:29;;;;;;;21.67;14.02;;;17.20;99.90;;;;;;5017365;28;20048;-58
2023/09/13 03:06:04;;;;;;;26.75;17.30;;;17.20;99.90;;;;;;5024141;28;20026;-58
2023/09/13 03:08:29;;;;;;;18.83;13.57;;;17.20;99.90;;;;;;5024167;28;20430;-58
2023/09/13 03:10:55;;;;;;;22.38;14.55;;;17.20;99.90;;;;;;5020030;28;20031;-58
2023/09/13 03:13:20;;;;;;;25.65;17.23;;;17.10;99.90;;;;;;5016061;28;20029;-58
2023/09/13 03:15:46;;;;;;;21.60;14.43;;;17.10;99.90;;;;;;5028393;28;20509;-58
2023/09/13 03:18:12;;;;;;;28.70;15.95;;;17.10;99.90;;;;;;5020454;28;20096;-58
2023/09/13 03:20:39;;;;;;;29.33;17.88;;;17.00;99.90;;;;;;5017374;28;20041;-58
2023/09/13 03:23:05;;;;;;;31.88;19.25;;;16.90;99.90;;;;;;5017363;28;20510;-58
2023/09/13 03:25:32;;;;;;;31.50;19.92;;;17.00;99.90;;;;;;5018199;28;20037;-58
2023/09/13 03:27:58;;;;;;;24.55;16.85;;;17.00;99.90;;;;;;5017635;28;20025;-58
2023/09/13 03:30:24;;;;;;;32.58;19.05;;;17.00;99.90;;;;;;5016166;28;20069;-58
2023/09/13 03:32:49;;;;;;;30.83;19.20;;;16.90;99.90;;;;;;5018027;28;20065;-58
2023/09/13 03:35:15;;;;;;;39.35;21.70;;;16.90;99.90;;;;;;5019882;28;20124;-58
2023/09/13 03:37:40;;;;;;;27.20;18.95;;;16.90;99.90;;;;;;5024227;28;20047;-58
2023/09/13 03:40:06;;;;;;;30.92;19.10;;;16.90;99.90;;;;;;5022633;28;20041;-58
2023/09/13 03:42:32;;;;;;;35.97;19.17;;;16.90;99.90;;;;;;5017608;28;20037;-58
2023/09/13 03:44:57;;;;;;;29.80;18.13;;;16.90;99.90;;;;;;5017715;28;20063;-58
2023/09/13 03:47:23;;;;;;;29.42;18.23;;;16.90;99.90;;;;;;5018018;28;20096;-58
2023/09/13 03:49:49;;;;;;;27.65;16.85;;;16.90;99.90;;;;;;5015969;28;20398;-58
2023/09/13 03:52:14;;;;;;;36.63;20.23;;;16.90;99.90;;;;;;5015708;28;20064;-58
2023/09/13 03:54:39;;;;;;;28.75;17.95;;;16.90;99.90;;;;;;5016001;28;20430;-58
2023/09/13 03:57:05;;;;;;;24.45;17.02;;;16.90;99.90;;;;;;5015712;28;20044;-58
2023/09/13 03:59:31;;;;;;;23.55;15.63;;;16.80;99.90;;;;;;5018646;28;20021;-58
2023/09/13 04:01:56;;;;;;;31.25;18.52;;;16.80;99.90;;;;;;5018159;28;20037;-58
2023/09/13 04:04:22;;;;;;;33.03;19.13;;;16.80;99.90;;;;;;5016820;28;20052;-58
2023/09/13 04:06:47;;;;;;;37.47;21.15;;;16.80;99.90;;;;;;5020661;28;20431;-58
2023/09/13 04:09:13;;;;;;;41.58;23.60;;;16.80;99.90;;;;;;5023826;28;20025;-58
2023/09/13 04:11:39;;;;;;;45.80;25.33;;;16.80;99.90;;;;;;5017453;28;20107;-58
2023/09/13 04:14:07;;;;;;;62.22;30.25;;;16.80;99.90;;;;;;5017226;28;20083;-58
2023/09/13 04:16:32;;;;;;;72.82;32.85;;;16.80;99.90;;;;;;5017841;28;20404;-58
2023/09/13 04:18:58;;;;;;;54.25;29.13;;;16.80;99.90;;;;;;5017406;28;20040;-58
2023/09/13 04:21:23;;;;;;;57.45;29.98;;;16.80;99.90;;;;;;5017001;28;20029;-58
2023/09/13 04:23:48;;;;;;;52.92;28.40;;;16.90;99.90;;;;;;5018840;28;20022;-58
2023/09/13 04:26:20;;;;;;;59.05;30.95;;;16.90;99.90;;;;;;5017259;28;20069;-58
2023/09/13 04:28:45;;;;;;;48.97;27.52;;;16.90;99.90;;;;;;5016270;28;20037;-58
2023/09/13 04:31:11;;;;;;;56.80;28.73;;;16.90;99.90;;;;;;5029229;28;20403;-58
2023/09/13 04:33:54;;;;;;;66.63;31.73;;;16.90;99.90;;;;;;5017897;28;20033;-58
2023/09/13 04:36:19;;;;;;;62.47;29.95;;;16.90;99.90;;;;;;5018887;28;20436;-58
2023/09/13 04:38:47;;;;;;;86.03;32.70;;;16.90;99.90;;;;;;5017289;28;20172;-58
2023/09/13 04:41:15;;;;;;;65.15;31.08;;;16.90;99.90;;;;;;5014336;28;20033;-58
2023/09/13 04:43:40;;;;;;;56.55;27.50;;;16.90;99.90;;;;;;5016591;28;20432;-58
2023/09/13 04:46:06;;;;;;;49.10;26.20;;;16.80;99.90;;;;;;5028788;28;20121;-58
2023/09/13 04:48:32;;;;;;;52.22;26.50;;;16.80;99.90;;;;;;5016396;28;20145;-58
2023/09/13 04:50:58;;;;;;;43.92;25.25;;;16.80;99.90;;;;;;5020393;28;20060;-58
2023/09/13 04:53:25;;;;;;;45.60;24.20;;;16.80;99.90;;;;;;5021451;28;20109;-58
2023/09/13 04:55:50;;;;;;;48.13;24.67;;;16.80;99.90;;;;;;5022222;28;20108;-58
2023/09/13 04:58:16;;;;;;;45.05;25.27;;;16.80;99.90;;;;;;5029718;28;20116;-58
2023/09/13 05:00:41;;;;;;;53.25;27.85;;;16.80;99.90;;;;;;5024120;28;20492;-58
2023/09/13 05:03:07;;;;;;;43.97;23.77;;;16.80;99.90;;;;;;5029648;28;20029;-58
2023/09/13 05:05:32;;;;;;;55.28;26.35;;;16.80;99.90;;;;;;5026801;28;20404;-57
2023/09/13 05:07:58;;;;;;;44.65;22.60;;;16.80;99.90;;;;;;5025984;28;20021;-58
2023/09/13 05:10:23;;;;;;;65.75;26.05;;;16.90;99.90;;;;;;5032985;28;20111;-58
2023/09/13 05:12:49;;;;;;;46.78;24.52;;;16.90;99.90;;;;;;5030175;28;20390;-58
2023/09/13 05:15:15;;;;;;;30.98;18.55;;;16.90;99.90;;;;;;5023640;28;20021;-58
2023/09/13 05:17:40;;;;;;;42.88;22.50;;;16.90;99.90;;;;;;5027321;28;20040;-58
2023/09/13 05:20:07;;;;;;;55.45;23.40;;;16.90;99.90;;;;;;5039572;28;20060;-58
2023/09/13 05:22:33;;;;;;;36.97;21.05;;;16.90;99.90;;;;;;5021769;28;20076;-58
2023/09/13 05:25:00;;;;;;;35.00;18.48;;;16.80;99.90;;;;;;5021657;28;20076;-58
2023/09/13 05:27:26;;;;;;;28.80;17.13;;;16.90;99.90;;;;;;5020411;28;20044;-58
2023/09/13 05:29:52;;;;;;;44.38;19.33;;;16.90;99.90;;;;;;5022205;28;20561;-58
2023/09/13 05:32:18;;;;;;;28.75;16.20;;;16.90;99.90;;;;;;5021324;28;20091;-58
2023/09/13 05:34:44;;;;;;;28.33;16.50;;;16.80;99.90;;;;;;5030320;28;20647;-58
2023/09/13 05:37:10;;;;;;;25.75;15.73;;;16.80;99.90;;;;;;5026052;28;20071;-58
2023/09/13 05:39:35;;;;;;;23.20;14.15;;;16.90;99.90;;;;;;5030048;28;20029;-58
2023/09/13 05:42:02;;;;;;;34.13;18.00;;;16.90;99.90;;;;;;5030722;28;20041;-58
2023/09/13 05:44:28;;;;;;;25.88;15.95;;;16.90;99.90;;;;;;5028686;28;20454;-58
2023/09/13 05:46:53;;;;;;;25.25;15.50;;;17.00;99.90;;;;;;5030638;28;20029;-58
2023/09/13 05:49:19;;;;;;;25.50;16.75;;;17.00;99.90;;;;;;5028114;28;20059;-59
2023/09/13 05:51:48;;;;;;;33.75;17.13;;;17.00;99.90;;;;;;5024007;28;20057;-58
2023/09/13 05:54:14;;;;;;;34.35;17.55;;;17.10;99.90;;;;;;5025029;28;20021;-58
2023/09/13 05:56:41;;;;;;;34.00;17.63;;;17.00;99.90;;;;;;5024075;28;20111;-58
2023/09/13 05:59:07;;;;;;;36.63;18.67;;;17.10;99.90;;;;;;5023810;28;20048;-58
2023/09/13 06:01:33;;;;;;;31.33;17.52;;;17.10;99.90;;;;;;5024092;28;20398;-58
2023/09/13 06:03:58;;;;;;;51.33;22.45;;;17.10;99.90;;;;;;5023388;28;20105;-58
2023/09/13 06:06:24;;;;;;;34.33;19.40;;;17.10;99.90;;;;;;5024073;28;20586;-58
2023/09/13 06:08:49;;;;;;;31.13;18.50;;;17.10;99.90;;;;;;5025570;28;20053;-58
2023/09/13 06:11:16;;;;;;;39.90;18.95;;;17.20;99.90;;;;;;5028310;28;20478;-58
2023/09/13 06:13:41;;;;;;;26.13;16.30;;;17.20;99.90;;;;;;5024831;28;20025;-58
2023/09/13 06:16:07;;;;;;;25.55;16.23;;;17.20;99.90;;;;;;5025166;28;20475;-58
2023/09/13 06:18:32;;;;;;;30.15;17.33;;;17.30;99.90;;;;;;5022922;28;20048;-58
2023/09/13 06:20:58;;;;;;;31.08;18.92;;;17.30;99.90;;;;;;5025167;28;20155;-58
2023/09/13 06:23:40;;;;;;;29.63;17.58;;;17.30;99.90;;;;;;5023836;28;20140;-58
2023/09/13 06:26:06;;;;;;;56.28;24.00;;;17.40;99.90;;;;;;5027938;28;20108;-58
2023/09/13 06:28:32;;;;;;;46.33;22.25;;;17.30;99.90;;;;;;5022396;28;20101;-58
2023/09/13 06:30:58;;;;;;;32.70;18.25;;;17.40;99.90;;;;;;5019919;28;20029;-58
2023/09/13 06:33:25;;;;;;;31.40;17.77;;;17.50;99.90;;;;;;5017525;28;20076;-58
2023/09/13 06:35:51;;;;;;;35.58;18.52;;;17.50;99.90;;;;;;5019272;28;20036;-58
2023/09/13 06:38:17;;;;;;;29.20;17.30;;;17.60;99.90;;;;;;5018869;28;20025;-58
2023/09/13 06:40:43;;;;;;;25.40;15.20;;;17.50;99.90;;;;;;5024257;28;20026;-58
2023/09/13 06:43:10;;;;;;;29.90;16.55;;;17.60;99.90;;;;;;5022470;28;20387;-58
2023/09/13 06:45:36;;;;;;;26.92;15.07;;;17.60;99.90;;;;;;5015690;28;20025;-58
2023/09/13 06:48:01;;;;;;;20.70;13.20;;;17.60;99.90;;;;;;5018231;28;20088;-58
2023/09/13 06:50:27;;;;;;;26.95;15.60;;;17.70;99.90;;;;;;5021609;28;20056;-58
2023/09/13 06:52:52;;;;;;;23.65;14.85;;;17.70;99.90;;;;;;5019349;28;20026;-58
2023/09/13 06:55:18;;;;;;;21.45;14.57;;;17.80;99.90;;;;;;5024070;28;20561;-58
2023/09/13 06:57:43;;;;;;;21.95;14.57;;;17.70;99.90;;;;;;5025415;28;20035;-58
2023/09/13 07:00:10;;;;;;;23.90;12.60;;;17.70;99.90;;;;;;5022615;28;20085;-58
2023/09/13 07:02:36;;;;;;;27.25;14.73;;;17.70;99.90;;;;;;5023543;28;20021;-58
2023/09/13 07:05:03;;;;;;;26.45;15.77;;;17.70;99.90;;;;;;5017449;28;20018;-58
2023/09/13 07:07:28;;;;;;;25.05;15.93;;;17.70;99.90;;;;;;5016914;28;20030;-58
2023/09/13 07:09:54;;;;;;;25.38;15.23;;;17.50;99.90;;;;;;5016200;28;20030;-58
2023/09/13 07:12:19;;;;;;;31.23;16.25;;;17.60;99.90;;;;;;5020033;28;20029;-57
2023/09/13 07:14:45;;;;;;;27.50;16.60;;;17.60;99.90;;;;;;5032789;28;20038;-57
2023/09/13 07:17:10;;;;;;;31.15;16.70;;;17.60;99.90;;;;;;5023474;28;20282;-57
2023/09/13 07:19:36;;;;;;;25.52;16.33;;;17.60;99.90;;;;;;5029264;28;20485;-57
2023/09/13 07:22:03;;;;;;;28.13;15.95;;;17.60;99.90;;;;;;5021918;28;20026;-57
2023/09/13 07:24:29;;;;;;;22.38;15.02;;;17.80;99.90;;;;;;5029004;28;20430;-57
2023/09/13 07:26:55;;;;;;;32.00;16.25;;;17.80;99.90;;;;;;5029017;28;20030;-57
2023/09/13 07:29:20;;;;;;;19.23;13.25;;;17.90;99.90;;;;;;5030417;28;20045;-57
2023/09/13 07:31:46;;;;;;;22.75;15.63;;;17.90;99.90;;;;;;5026692;28;20290;-57
2023/09/13 07:34:12;;;;;;;26.42;15.25;;;17.90;99.90;;;;;;5022051;28;20037;-57
2023/09/13 07:36:37;;;;;;;19.23;12.95;;;17.90;99.90;;;;;;5034224;28;20045;-57
2023/09/13 07:39:03;;;;;;;47.22;20.80;;;17.90;99.90;;;;;;5024598;28;20108;-57
2023/09/13 07:41:29;;;;;;;26.00;15.52;;;17.90;99.90;;;;;;5021881;28;20025;-57
2023/09/13 07:43:55;;;;;;;26.42;16.27;;;17.90;99.90;;;;;;5027153;28;20021;-57
2023/09/13 07:46:22;;;;;;;29.85;17.30;;;17.80;99.90;;;;;;5026583;28;20052;-57
2023/09/13 07:48:47;;;;;;;32.90;17.10;;;17.70;99.90;;;;;;5045032;28;20315;-57
2023/09/13 07:51:13;;;;;;;21.67;14.80;;;17.80;99.90;;;;;;5027869;28;20037;-58
2023/09/13 07:53:40;;;;;;;31.55;17.23;;;17.80;99.90;;;;;;5027992;28;20465;-58
2023/09/13 07:56:06;;;;;;;26.20;16.52;;;17.70;99.90;;;;;;5029633;28;20317;-58
2023/09/13 07:58:31;;;;;;;29.25;16.55;;;17.80;99.90;;;;;;5028736;28;20033;-58
2023/09/13 08:00:57;;;;;;;22.40;15.57;;;17.80;99.90;;;;;;5025387;28;20048;-58
2023/09/13 08:03:22;;;;;;;29.13;17.50;;;17.90;99.90;;;;;;5029545;28;20040;-58
2023/09/13 08:05:48;;;;;;;20.17;15.63;;;18.00;99.90;;;;;;5028523;28;20029;-58
2023/09/13 08:08:22;;;;;;;19.75;13.60;;;18.30;99.90;;;;;;5026778;28;20086;-58
2023/09/13 08:10:52;;;;;;;16.13;11.10;;;18.80;99.90;;;;;;5026141;28;20022;-58
2023/09/13 08:13:21;;;;;;;12.82;10.07;;;19.20;99.90;;;;;;5029209;28;20095;-58
2023/09/13 08:15:47;;;;;;;12.32;10.40;;;19.10;99.90;;;;;;5027057;28;20035;-58
2023/09/13 08:18:13;;;;;;;12.52;9.38;;;19.20;99.90;;;;;;5025612;28;20172;-58
2023/09/13 08:20:38;;;;;;;9.32;8.43;;;19.40;99.90;;;;;;5025278;28;20123;-58
2023/09/13 08:23:04;;;;;;;11.68;7.82;;;19.40;99.90;;;;;;5028681;28;20080;-58
2023/09/13 08:25:29;;;;;;;10.48;9.00;;;19.40;99.90;;;;;;5040986;28;20101;-57
2023/09/13 08:27:55;;;;;;;8.40;7.40;;;19.90;99.90;;;;;;5029222;28;20420;-57
2023/09/13 08:30:20;;;;;;;10.57;7.63;;;20.60;99.90;;;;;;5028950;28;20029;-57
2023/09/13 08:32:46;;;;;;;7.68;6.80;;;21.10;99.90;;;;;;5044195;28;20032;-57
2023/09/13 08:35:11;;;;;;;7.32;6.35;;;21.70;99.90;;;;;;5022044;28;20361;-56
2023/09/13 08:37:37;;;;;;;7.15;5.88;;;22.30;99.90;;;;;;5028965;28;20041;-56
2023/09/13 08:40:04;;;;;;;5.93;5.43;;;22.50;99.90;;;;;;5023282;28;20022;-57
2023/09/13 08:42:30;;;;;;;5.65;5.13;;;22.50;99.90;;;;;;5029058;28;20021;-55
2023/09/13 08:44:57;;;;;;;5.43;4.85;;;23.30;99.90;;;;;;5011464;28;20025;-57
2023/09/13 08:47:26;;;;;;;5.32;4.70;;;24.00;99.90;;;;;;5026122;28;20410;-57
2023/09/13 08:49:52;;;;;;;5.90;5.28;;;23.80;99.90;;;;;;5024159;28;20041;-60
2023/09/13 08:52:20;;;;;;;4.85;4.20;;;24.50;99.90;;;;;;5026043;28;20116;-57
2023/09/13 08:54:48;;;;;;;4.75;4.25;;;25.20;99.90;;;;;;5021249;28;20380;-57
2023/09/13 08:57:14;;;;;;;4.53;4.13;;;25.60;99.90;;;;;;5020343;28;20029;-57
2023/09/13 08:59:39;;;;;;;4.85;4.35;;;25.70;99.90;;;;;;5018740;28;20026;-57
2023/09/13 09:02:10;;;;;;;6.50;4.65;;;25.90;99.90;;;;;;5020820;28;20113;-56
2023/09/13 09:04:36;;;;;;;5.63;4.03;;;25.90;99.90;;;;;;5023705;28;20088;-57
2023/09/13 09:07:01;;;;;;;4.07;3.67;;;26.40;99.90;;;;;;5018007;28;20038;-57
2023/09/13 09:09:31;;;;;;;5.40;3.80;;;28.00;99.90;;;;;;5028819;28;20029;-57
2023/09/13 09:11:59;;;;;;;;;;;28.90;98.90;;;;;;5029340;28;20025;-57
2023/09/13 09:14:30;;;;;;;5.35;3.80;;;29.10;98.20;;;;;;5044250;28;19913;-57
2023/09/13 09:16:56;;;;;;;6.00;4.22;;;28.80;97.50;;;;;;5028972;28;20111;-57
2023/09/13 09:19:22;;;;;;;6.68;4.47;;;28.00;98.90;;;;;;5028902;28;20100;-57
2023/09/13 09:21:47;;;;;;;4.15;3.85;;;27.90;98.10;;;;;;5021228;28;20109;-57
2023/09/13 09:24:13;;;;;;;4.55;4.07;;;28.40;98.30;;;;;;5024273;28;20578;-57
2023/09/13 09:26:38;;;;;;;5.95;4.15;;;28.40;97.60;;;;;;5019333;28;20383;-57
2023/09/13 09:29:14;;;;;;;5.57;5.03;;;27.60;97.90;;;;;;5023532;28;20069;-57
2023/09/13 09:31:41;;;;;;;6.05;5.25;;;26.60;98.50;;;;;;5021790;28;20128;-57
2023/09/13 09:34:08;;;;;;;5.75;4.63;;;26.70;99.30;;;;;;5018903;28;20041;-57
2023/09/13 09:36:41;;;;;;;5.45;4.95;;;27.20;99.70;;;;;;5023912;28;20021;-57
2023/09/13 09:39:07;;;;;;;9.18;3.97;;;28.10;98.00;;;;;;5027325;28;20029;-57
2023/09/13 09:41:34;;;;;;;5.65;4.28;;;29.20;95.90;;;;;;5027064;28;20540;-57
2023/09/13 09:44:00;;;;;;;5.03;4.53;;;29.00;95.60;;;;;;5026955;28;20087;-57
2023/09/13 09:46:25;;;;;;;4.60;4.20;;;29.20;95.40;;;;;;5025186;28;20025;-57
2023/09/13 09:48:52;;;;;;;5.63;4.47;;;29.50;94.70;;;;;;5026840;28;20495;-57
2023/09/13 09:51:18;;;;;;;4.80;4.18;;;29.00;95.40;;;;;;5030484;28;20041;-57
2023/09/13 09:53:44;;;;;;;5.00;4.50;;;28.60;95.00;;;;;;5029580;28;20387;-57
2023/09/13 09:56:14;;;;;;;5.25;4.70;;;27.90;95.60;;;;;;5031233;28;20033;-57
2023/09/13 09:58:41;;;;;;;5.38;4.70;;;27.20;96.90;;;;;;5025794;28;20021;-56
2023/09/13 10:01:07;;;;;;;5.60;5.10;;;26.50;97.80;;;;;;5028584;28;20069;-56
2023/09/13 10:03:33;;;;;;;7.40;4.90;;;25.80;99.20;;;;;;5030773;28;20023;-57
2023/09/13 10:06:10;;;;;;;6.43;5.53;;;25.20;99.90;;;;;;5032088;28;20033;-57
2023/09/13 10:08:37;;;;;;;5.68;5.18;;;24.60;99.90;;;;;;5030552;28;20432;-56
2023/09/13 10:11:03;;;;;;;8.65;5.88;;;23.90;99.90;;;;;;5031459;28;20021;-57
2023/09/13 10:13:32;;;;;;;8.48;6.07;;;23.50;99.90;;;;;;5031724;28;20033;-56
2023/09/13 10:15:59;;;;;;;6.03;5.50;;;23.30;99.90;;;;;;5031621;28;20037;-56
2023/09/13 10:18:25;;;;;;;6.00;5.50;;;23.30;99.90;;;;;;5025030;28;20065;-57
2023/09/13 10:20:55;;;;;;;6.80;5.75;;;23.60;99.90;;;;;;5028316;28;20057;-56
2023/09/13 10:23:25;;;;;;;6.57;5.82;;;23.70;99.90;;;;;;5026086;28;20087;-56
2023/09/13 10:25:53;;;;;;;6.55;5.82;;;23.60;99.90;;;;;;5030126;28;20026;-57
2023/09/13 10:28:21;;;;;;;6.00;5.38;;;23.50;99.90;;;;;;5026148;28;20021;-56
2023/09/13 10:30:49;;;;;;;6.57;5.88;;;23.20;99.90;;;;;;5023981;28;20086;-56
2023/09/13 10:33:15;;;;;;;6.78;6.18;;;23.00;99.90;;;;;;5031268;28;20475;-56
2023/09/13 10:35:45;;;;;;;7.07;5.88;;;22.80;99.90;;;;;;5025353;28;20029;-56
2023/09/13 10:38:36;;;;;;;6.65;6.05;;;22.60;99.90;;;;;;5030993;28;20394;-56
2023/09/13 10:41:07;;;;;;;9.07;6.95;;;22.40;99.90;;;;;;5026776;28;20030;-56
2023/09/13 10:43:33;;;;;;;8.68;6.65;;;22.20;99.90;;;;;;5029582;28;20030;-56
2023/09/13 10:46:00;;;;;;;6.82;6.07;;;22.40;99.90;;;;;;5027877;28;20017;-56
2023/09/13 10:48:27;;;;;;;6.63;5.97;;;23.80;99.90;;;;;;5031553;28;20025;-56
2023/09/13 10:50:55;;;;;;;5.15;4.65;;;25.60;99.90;;;;;;5029185;28;20021;-56
2023/09/13 10:53:22;;;;;;;5.25;4.75;;;26.70;99.90;;;;;;5030848;28;20026;-56
2023/09/13 10:55:50;;;;;;;5.18;4.78;;;26.90;99.90;;;;;;5026015;28;20029;-56
2023/09/13 10:58:20;;;;;;;5.05;4.55;;;26.80;99.90;;;;;;5031878;28;20028;-56
2023/09/13 11:00:47;;;;;;;5.75;4.80;;;27.20;99.90;;;;;;5029005;28;20025;-56
2023/09/13 11:03:13;;;;;;;4.35;3.88;;;28.60;98.80;;;;;;5021690;28;20531;-56
2023/09/13 11:05:39;;;;;;;6.57;4.72;;;29.10;96.70;;;;;;5030870;28;20036;-56
2023/09/13 11:08:08;;;;;;;4.85;4.43;;;28.60;95.90;;;;;;5025428;28;20022;-56
2023/09/13 11:10:33;;;;;;;4.72;4.32;;;27.90;96.20;;;;;;5027770;28;20017;-56
2023/09/13 11:13:12;;;;;;;4.53;4.18;;;27.30;97.70;;;;;;5030531;28;20044;-56
2023/09/13 11:15:49;;;;;;;5.13;4.72;;;26.40;98.90;;;;;;5030783;28;20052;-57
2023/09/13 11:18:15;;;;;;;3.97;3.40;;;25.80;99.80;;;;;;5030492;28;20025;-56
2023/09/13 11:20:42;;;;;;;4.30;3.10;;;24.80;99.90;;;;;;5026071;28;20044;-56
2023/09/13 11:23:18;;;;;;;3.35;3.05;;;24.10;99.90;;;;;;5025428;28;20040;-56
2023/09/13 11:25:49;;;;;;;2.72;2.40;;;23.50;99.90;;;;;;5022819;28;20438;-56
2023/09/13 11:28:36;;;;;;;2.70;2.50;;;22.90;99.90;;;;;;5027682;28;20037;-56
2023/09/13 11:31:04;;;;;;;2.95;2.72;;;22.40;99.90;;;;;;5036340;28;20069;-56
2023/09/13 11:33:31;;;;;;;2.90;2.60;;;22.00;99.90;;;;;;5029644;28;20033;-56
2023/09/13 11:35:58;;;;;;;4.38;3.65;;;21.60;99.90;;;;;;5024179;28;20109;-55
2023/09/13 11:38:25;;;;;;;4.53;3.10;;;21.30;99.90;;;;;;5028334;28;20188;-56
2023/09/13 11:40:55;;;;;;;2.65;2.45;;;21.10;99.90;;;;;;5029581;28;20014;-56
2023/09/13 11:43:25;;;;;;;4.25;3.30;;;20.90;99.90;;;;;;5028679;28;20056;-56
2023/09/13 11:45:51;;;;;;;;;;;20.80;99.90;;;;;;5023059;28;20026;-56
2023/09/13 11:48:41;;;;;;;4.93;3.75;;;20.70;99.90;;;;;;5026027;28;19909;-56
2023/09/13 11:51:11;;;;;;;4.03;3.63;;;20.60;99.90;;;;;;5024189;28;20034;-56
2023/09/13 11:53:37;;;;;;;4.55;3.47;;;20.50;99.90;;;;;;5024781;28;20398;-56
2023/09/13 11:56:02;;;;;;;3.90;3.60;;;20.50;99.90;;;;;;5019262;28;19913;-56
2023/09/13 11:58:34;;;;;;;4.13;3.47;;;20.50;99.90;;;;;;5027588;28;20029;-55
2023/09/13 12:01:02;;;;;;;3.63;3.33;;;20.60;99.90;;;;;;5029521;28;20471;-55
2023/09/13 12:03:32;;;;;;;3.80;3.50;;;20.60;99.90;;;;;;5030079;28;20032;-56
2023/09/13 12:05:58;;;;;;;;;;;20.80;99.90;;;;;;5030518;28;20017;-56
2023/09/13 12:08:28;;;;;;;3.17;2.85;;;20.90;99.90;;;;;;5028526;28;19951;-56
2023/09/13 12:10:56;;;;;;;3.75;2.90;;;21.30;99.90;;;;;;5029229;28;20021;-55
2023/09/13 12:13:43;;;;;;;2.97;2.60;;;21.60;99.90;;;;;;5028852;28;20088;-55
2023/09/13 12:16:08;;;;;;;2.45;2.25;;;21.60;99.90;;;;;;5025661;28;20372;-56
2023/09/13 12:18:37;;;;;;;1.92;1.83;;;21.50;99.90;;;;;;5029619;28;20025;-55
2023/09/13 12:21:04;;;;;;;1.70;1.60;;;21.30;99.90;;;;;;5027728;28;20487;-56
2023/09/13 12:23:34;;;;;;;1.80;1.70;;;21.20;99.90;;;;;;5029377;28;20036;-55
2023/09/13 12:26:00;;;;;;;2.00;1.75;;;21.20;99.90;;;;;;5029563;28;20391;-55
2023/09/13 12:28:26;;;;;;;1.98;1.83;;;21.00;99.90;;;;;;5029488;28;20027;-55
2023/09/13 12:30:53;;;;;;;2.20;1.67;;;21.00;99.90;;;;;;5026318;28;20025;-56
2023/09/13 12:33:19;;;;;;;1.73;1.55;;;20.90;99.90;;;;;;5044774;28;20040;-55